sensor_id;sensor_type;location;lat;lon;timestamp;temperature;humidity
24384;DHT22;12504;52.870;8.798;2023-04-06T05:45:38;1.20;99.90
24384;DHT22;12504;52.870;8.798;2023-04-06T05:48:05;1.60;99.90
24384;DHT22;12504;52.870;8.798;2023-04-06T05:50:31;2.00;99.90
24384;DHT22;12504;52.870;8.798;2023-04-06T05:52:57;2.60;99.90
24384;DHT22;12504;52.870;8.798;2023-04-06T05:55:28;3.10;99.90
24384;DHT22;12504;52.870;8.798;2023-04-06T05:58:06;3.60;91.00
24384;DHT22;12504;52.870;8.798;2023-04-06T06:00:31;4.00;56.60
24384;DHT22;12504;52.870;8.798;2023-04-06T06:03:03;4.20;42.80
24384;DHT22;12504;52.870;8.798;2023-04-06T06:05:30;4.00;49.80
24384;DHT22;12504;52.870;8.798;2023-04-06T06:08:02;3.80;45.80
24384;DHT22;12504;52.870;8.798;2023-04-06T06:10:29;3.40;65.50
24384;DHT22;12504;52.870;8.798;2023-04-06T06:12:55;3.10;87.60
24384;DHT22;12504;52.870;8.798;2023-04-06T06:15:21;2.90;87.90
24384;DHT22;12504;52.870;8.798;2023-04-06T06:17:47;2.60;96.40
24384;DHT22;12504;52.870;8.798;2023-04-06T06:20:13;2.40;99.90
24384;DHT22;12504;52.870;8.798;2023-04-06T06:22:39;2.30;99.90
24384;DHT22;12504;52.870;8.798;2023-04-06T06:25:09;2.20;99.90
24384;DHT22;12504;52.870;8.798;2023-04-06T06:27:35;2.20;99.90
24384;DHT22;12504;52.870;8.798;2023-04-06T06:30:02;2.10;99.90
24384;DHT22;12504;52.870;8.798;2023-04-06T06:32:30;2.00;99.90
24384;DHT22;12504;52.870;8.798;2023-04-06T06:34:56;2.00;99.90
24384;DHT22;12504;52.870;8.798;2023-04-06T06:37:21;2.00;99.90
24384;DHT22;12504;52.870;8.798;2023-04-06T06:39:48;2.00;99.90
24384;DHT22;12504;52.870;8.798;2023-04-06T06:42:14;2.00;99.90
24384;DHT22;12504;52.870;8.798;2023-04-06T06:45:06;2.00;99.90
24384;DHT22;12504;52.870;8.798;2023-04-06T06:47:32;2.10;99.90
24384;DHT22;12504;52.870;8.798;2023-04-06T06:49:58;2.10;99.90
24384;DHT22;12504;52.870;8.798;2023-04-06T06:52:23;2.20;99.90
24384;DHT22;12504;52.870;8.798;2023-04-06T06:54:49;2.20;99.90
24384;DHT22;12504;52.870;8.798;2023-04-06T06:57:17;2.30;99.90
24384;DHT22;12504;52.870;8.798;2023-04-06T06:59:43;2.40;99.90
24384;DHT22;12504;52.870;8.798;2023-04-06T07:02:09;2.50;99.90
24384;DHT22;12504;52.870;8.798;2023-04-06T07:04:35;2.50;99.90
24384;DHT22;12504;52.870;8.798;2023-04-06T07:07:00;2.60;99.90
24384;DHT22;12504;52.870;8.798;2023-04-06T07:09:26;2.70;99.90
24384;DHT22;12504;52.870;8.798;2023-04-06T07:11:52;2.80;99.90
24384;DHT22;12504;52.870;8.798;2023-04-06T07:14:18;2.90;99.90
24384;DHT22;12504;52.870;8.798;2023-04-06T07:16:44;3.00;99.90
24384;DHT22;12504;52.870;8.798;2023-04-06T07:19:10;3.20;99.90
24384;DHT22;12504;52.870;8.798;2023-04-06T07:21:36;3.30;99.90
24384;DHT22;12504;52.870;8.798;2023-04-06T07:24:02;3.40;99.90
24384;DHT22;12504;52.870;8.798;2023-04-06T07:26:27;3.50;97.90
24384;DHT22;12504;52.870;8.798;2023-04-06T07:28:53;3.60;91.90
24384;DHT22;12504;52.870;8.798;2023-04-06T07:31:22;3.80;94.10
24384;DHT22;12504;52.870;8.798;2023-04-06T07:33:48;3.90;80.90
24384;DHT22;12504;52.870;8.798;2023-04-06T07:36:13;4.00;88.90
24384;DHT22;12504;52.870;8.798;2023-04-06T07:38:39;4.10;82.20
24384;DHT22;12504;52.870;8.798;2023-04-06T07:41:05;4.20;75.00
24384;DHT22;12504;52.870;8.798;2023-04-06T07:43:31;4.30;89.90
24384;DHT22;12504;52.870;8.798;2023-04-06T07:45:57;4.40;76.00
24384;DHT22;12504;52.870;8.798;2023-04-06T07:48:25;4.50;66.50
24384;DHT22;12504;52.870;8.798;2023-04-06T07:50:51;4.70;72.50
24384;DHT22;12504;52.870;8.798;2023-04-06T07:53:17;4.80;63.60
24384;DHT22;12504;52.870;8.798;2023-04-06T07:55:44;4.90;58.50
24384;DHT22;12504;52.870;8.798;2023-04-06T07:58:10;5.10;60.80
24384;DHT22;12504;52.870;8.798;2023-04-06T08:00:36;5.20;41.90
24384;DHT22;12504;52.870;8.798;2023-04-06T08:03:01;5.20;32.30
24384;DHT22;12504;52.870;8.798;2023-04-06T08:05:27;5.40;40.70
24384;DHT22;12504;52.870;8.798;2023-04-06T08:07:52;5.50;30.30
24384;DHT22;12504;52.870;8.798;2023-04-06T08:10:18;5.50;22.10
24384;DHT22;12504;52.870;8.798;2023-04-06T08:12:44;5.60;25.20
24384;DHT22;12504;52.870;8.798;2023-04-06T08:15:09;5.70;22.30
24384;DHT22;12504;52.870;8.798;2023-04-06T08:17:38;5.90;21.80
24384;DHT22;12504;52.870;8.798;2023-04-06T08:20:04;5.90;18.40
24384;DHT22;12504;52.870;8.798;2023-04-06T08:22:29;6.10;22.00
24384;DHT22;12504;52.870;8.798;2023-04-06T08:24:55;6.10;15.50
24384;DHT22;12504;52.870;8.798;2023-04-06T08:27:21;6.20;16.50
24384;DHT22;12504;52.870;8.798;2023-04-06T08:29:47;6.40;8.90
24384;DHT22;12504;52.870;8.798;2023-04-06T08:32:12;6.40;4.90
24384;DHT22;12504;52.870;8.798;2023-04-06T08:34:38;6.50;2.80
24384;DHT22;12504;52.870;8.798;2023-04-06T08:37:03;6.60;5.10
24384;DHT22;12504;52.870;8.798;2023-04-06T08:39:30;6.70;4.40
24384;DHT22;12504;52.870;8.798;2023-04-06T08:41:56;6.90;1.00
24384;DHT22;12504;52.870;8.798;2023-04-06T08:44:23;6.90;1.00
24384;DHT22;12504;52.870;8.798;2023-04-06T08:46:49;7.10;1.00
24384;DHT22;12504;52.870;8.798;2023-04-06T08:49:16;7.20;1.00
24384;DHT22;12504;52.870;8.798;2023-04-06T08:51:42;7.30;1.00
24384;DHT22;12504;52.870;8.798;2023-04-06T08:54:07;7.40;1.00
24384;DHT22;12504;52.870;8.798;2023-04-06T08:56:35;7.40;1.00
24384;DHT22;12504;52.870;8.798;2023-04-06T08:59:02;7.50;1.00
24384;DHT22;12504;52.870;8.798;2023-04-06T09:01:28;7.60;1.00
24384;DHT22;12504;52.870;8.798;2023-04-06T09:03:58;7.70;1.00
24384;DHT22;12504;52.870;8.798;2023-04-06T09:06:25;7.70;1.00
24384;DHT22;12504;52.870;8.798;2023-04-06T09:08:54;7.70;1.00
24384;DHT22;12504;52.870;8.798;2023-04-06T09:11:20;7.80;1.00
24384;DHT22;12504;52.870;8.798;2023-04-06T09:13:50;7.80;1.00
24384;DHT22;12504;52.870;8.798;2023-04-06T09:16:16;7.90;1.00
24384;DHT22;12504;52.870;8.798;2023-04-06T09:18:42;8.00;1.00
24384;DHT22;12504;52.870;8.798;2023-04-06T09:21:08;8.00;1.00
24384;DHT22;12504;52.870;8.798;2023-04-06T09:23:34;8.10;1.00
24384;DHT22;12504;52.870;8.798;2023-04-06T09:26:06;8.20;1.00
24384;DHT22;12504;52.870;8.798;2023-04-06T09:28:42;8.30;1.00
24384;DHT22;12504;52.870;8.798;2023-04-06T09:31:08;8.50;1.00
24384;DHT22;12504;52.870;8.798;2023-04-06T09:33:38;8.70;1.00
24384;DHT22;12504;52.870;8.798;2023-04-06T09:36:05;8.90;1.00
24384;DHT22;12504;52.870;8.798;2023-04-06T09:38:31;9.10;1.00
24384;DHT22;12504;52.870;8.798;2023-04-06T09:40:57;9.20;1.00
24384;DHT22;12504;52.870;8.798;2023-04-06T09:43:28;9.30;1.00
24384;DHT22;12504;52.870;8.798;2023-04-06T09:45:55;9.40;1.00
24384;DHT22;12504;52.870;8.798;2023-04-06T09:48:21;9.60;1.00
24384;DHT22;12504;52.870;8.798;2023-04-06T09:50:49;9.60;1.00
24384;DHT22;12504;52.870;8.798;2023-04-06T09:53:17;9.70;1.00
24384;DHT22;12504;52.870;8.798;2023-04-06T09:55:44;9.80;1.00
24384;DHT22;12504;52.870;8.798;2023-04-06T09:58:12;9.90;1.00
24384;DHT22;12504;52.870;8.798;2023-04-06T10:00:53;10.00;1.00
24384;DHT22;12504;52.870;8.798;2023-04-06T10:03:26;10.10;1.00
24384;DHT22;12504;52.870;8.798;2023-04-06T10:05:57;10.30;1.00
24384;DHT22;12504;52.870;8.798;2023-04-06T10:08:24;10.30;1.00
24384;DHT22;12504;52.870;8.798;2023-04-06T10:10:53;10.30;1.00
24384;DHT22;12504;52.870;8.798;2023-04-06T10:13:19;10.30;1.00
24384;DHT22;12504;52.870;8.798;2023-04-06T10:15:45;10.20;1.00
24384;DHT22;12504;52.870;8.798;2023-04-06T10:18:10;10.30;1.00
24384;DHT22;12504;52.870;8.798;2023-04-06T10:20:42;10.30;1.00
24384;DHT22;12504;52.870;8.798;2023-04-06T10:25:39;10.50;1.00
24384;DHT22;12504;52.870;8.798;2023-04-06T10:28:05;10.60;1.00
24384;DHT22;12504;52.870;8.798;2023-04-06T10:30:32;10.80;1.00
24384;DHT22;12504;52.870;8.798;2023-04-06T10:32:58;10.90;1.00
24384;DHT22;12504;52.870;8.798;2023-04-06T10:35:23;11.00;1.00
24384;DHT22;12504;52.870;8.798;2023-04-06T10:38:00;11.00;1.00
24384;DHT22;12504;52.870;8.798;2023-04-06T10:40:25;11.10;1.00
24384;DHT22;12504;52.870;8.798;2023-04-06T10:42:52;11.30;1.00
24384;DHT22;12504;52.870;8.798;2023-04-06T10:45:19;11.50;1.00
24384;DHT22;12504;52.870;8.798;2023-04-06T10:47:45;11.50;1.00
24384;DHT22;12504;52.870;8.798;2023-04-06T10:50:11;11.50;1.00
24384;DHT22;12504;52.870;8.798;2023-04-06T10:52:39;11.40;1.00
24384;DHT22;12504;52.870;8.798;2023-04-06T10:55:05;11.50;1.00
24384;DHT22;12504;52.870;8.798;2023-04-06T10:57:31;11.70;1.00
24384;DHT22;12504;52.870;8.798;2023-04-06T10:59:58;11.90;1.00
24384;DHT22;12504;52.870;8.798;2023-04-06T11:02:23;12.10;1.00
24384;DHT22;12504;52.870;8.798;2023-04-06T11:04:55;12.30;99.90
24384;DHT22;12504;52.870;8.798;2023-04-06T11:07:25;12.30;99.90
24384;DHT22;12504;52.870;8.798;2023-04-06T11:09:51;12.40;99.90
24384;DHT22;12504;52.870;8.798;2023-04-06T11:12:20;12.40;99.90
24384;DHT22;12504;52.870;8.798;2023-04-06T11:14:53;12.50;99.90
24384;DHT22;12504;52.870;8.798;2023-04-06T11:17:25;12.70;99.90
24384;DHT22;12504;52.870;8.798;2023-04-06T11:19:50;12.50;99.90
24384;DHT22;12504;52.870;8.798;2023-04-06T11:22:16;12.70;99.90
24384;DHT22;12504;52.870;8.798;2023-04-06T11:24:42;13.00;99.90
24384;DHT22;12504;52.870;8.798;2023-04-06T11:27:07;13.90;99.90
24384;DHT22;12504;52.870;8.798;2023-04-06T11:29:33;15.70;99.90
24384;DHT22;12504;52.870;8.798;2023-04-06T11:32:03;17.10;99.90
24384;DHT22;12504;52.870;8.798;2023-04-06T11:34:29;17.30;37.70
24384;DHT22;12504;52.870;8.798;2023-04-06T11:36:56;18.40;99.90
24384;DHT22;12504;52.870;8.798;2023-04-06T11:39:22;18.70;99.90
24384;DHT22;12504;52.870;8.798;2023-04-06T11:41:49;18.80;45.10
24384;DHT22;12504;52.870;8.798;2023-04-06T11:44:15;19.60;99.90
24384;DHT22;12504;52.870;8.798;2023-04-06T11:46:45;19.60;99.90
24384;DHT22;12504;52.870;8.798;2023-04-06T11:49:16;19.40;99.90
24384;DHT22;12504;52.870;8.798;2023-04-06T11:51:45;19.40;99.90
24384;DHT22;12504;52.870;8.798;2023-04-06T11:54:11;19.90;99.90
24384;DHT22;12504;52.870;8.798;2023-04-06T11:56:38;19.10;99.90
24384;DHT22;12504;52.870;8.798;2023-04-06T11:59:03;18.90;99.90
24384;DHT22;12504;52.870;8.798;2023-04-06T12:01:29;19.50;99.90
24384;DHT22;12504;52.870;8.798;2023-04-06T12:03:58;19.90;1.00
24384;DHT22;12504;52.870;8.798;2023-04-06T12:06:24;20.10;1.00
24384;DHT22;12504;52.870;8.798;2023-04-06T12:08:50;20.30;1.00
24384;DHT22;12504;52.870;8.798;2023-04-06T12:11:16;20.00;1.00
24384;DHT22;12504;52.870;8.798;2023-04-06T12:13:42;20.80;99.90
24384;DHT22;12504;52.870;8.798;2023-04-06T12:16:07;20.20;99.90
24384;DHT22;12504;52.870;8.798;2023-04-06T12:18:33;20.70;99.90
24384;DHT22;12504;52.870;8.798;2023-04-06T12:20:59;21.10;1.00
24384;DHT22;12504;52.870;8.798;2023-04-06T12:23:24;20.80;99.90
24384;DHT22;12504;52.870;8.798;2023-04-06T12:25:50;20.10;99.90
24384;DHT22;12504;52.870;8.798;2023-04-06T12:28:16;20.70;26.70
24384;DHT22;12504;52.870;8.798;2023-04-06T12:30:41;19.60;99.90
24384;DHT22;12504;52.870;8.798;2023-04-06T12:33:07;19.40;1.00
24384;DHT22;12504;52.870;8.798;2023-04-06T12:35:33;19.50;1.00
24384;DHT22;12504;52.870;8.798;2023-04-06T12:37:59;19.40;99.90
24384;DHT22;12504;52.870;8.798;2023-04-06T12:40:25;19.40;99.90
24384;DHT22;12504;52.870;8.798;2023-04-06T12:42:50;19.30;1.00
24384;DHT22;12504;52.870;8.798;2023-04-06T12:45:16;18.00;99.90
24384;DHT22;12504;52.870;8.798;2023-04-06T12:47:41;18.10;99.90
24384;DHT22;12504;52.870;8.798;2023-04-06T12:50:07;18.20;99.90
24384;DHT22;12504;52.870;8.798;2023-04-06T12:52:32;18.30;99.90
24384;DHT22;12504;52.870;8.798;2023-04-06T12:55:01;18.50;4.10
24384;DHT22;12504;52.870;8.798;2023-04-06T12:57:27;18.60;1.00
24384;DHT22;12504;52.870;8.798;2023-04-06T12:59:52;18.30;1.00
24384;DHT22;12504;52.870;8.798;2023-04-06T13:02:18;18.20;9.50
24384;DHT22;12504;52.870;8.798;2023-04-06T13:04:45;18.90;99.90
24384;DHT22;12504;52.870;8.798;2023-04-06T13:07:11;18.90;99.90
24384;DHT22;12504;52.870;8.798;2023-04-06T13:09:37;18.60;99.90
24384;DHT22;12504;52.870;8.798;2023-04-06T13:12:02;19.20;99.90
24384;DHT22;12504;52.870;8.798;2023-04-06T13:14:28;19.20;99.90
24384;DHT22;12504;52.870;8.798;2023-04-06T13:16:54;18.70;99.90
24384;DHT22;12504;52.870;8.798;2023-04-06T13:19:19;18.00;1.00
24384;DHT22;12504;52.870;8.798;2023-04-06T13:21:45;16.60;99.90
24384;DHT22;12504;52.870;8.798;2023-04-06T16:00:10;14.60;99.90
24384;DHT22;12504;52.870;8.798;2023-04-06T16:02:36;14.10;99.90
24384;DHT22;12504;52.870;8.798;2023-04-06T16:05:02;14.00;99.90
24384;DHT22;12504;52.870;8.798;2023-04-06T16:07:29;13.90;77.40
24384;DHT22;12504;52.870;8.798;2023-04-06T16:09:54;13.80;99.90
24384;DHT22;12504;52.870;8.798;2023-04-06T16:12:21;13.80;99.90
24384;DHT22;12504;52.870;8.798;2023-04-06T16:14:47;13.80;99.90
24384;DHT22;12504;52.870;8.798;2023-04-06T16:17:13;13.70;99.90
24384;DHT22;12504;52.870;8.798;2023-04-06T16:19:38;13.60;1.00
24384;DHT22;12504;52.870;8.798;2023-04-06T16:22:04;13.50;1.00
24384;DHT22;12504;52.870;8.798;2023-04-06T16:24:29;13.40;99.90
24384;DHT22;12504;52.870;8.798;2023-04-06T16:26:55;13.30;99.90
24384;DHT22;12504;52.870;8.798;2023-04-06T16:29:21;13.10;99.90
24384;DHT22;12504;52.870;8.798;2023-04-06T16:31:47;13.00;99.90
24384;DHT22;12504;52.870;8.798;2023-04-06T16:34:13;12.80;1.00
24384;DHT22;12504;52.870;8.798;2023-04-06T16:36:39;13.00;99.90
24384;DHT22;12504;52.870;8.798;2023-04-06T16:39:07;13.00;99.90
24384;DHT22;12504;52.870;8.798;2023-04-06T16:41:33;12.90;99.90
24384;DHT22;12504;52.870;8.798;2023-04-06T16:43:59;12.90;99.90
24384;DHT22;12504;52.870;8.798;2023-04-06T16:46:31;12.80;99.90
24384;DHT22;12504;52.870;8.798;2023-04-06T16:48:57;12.80;99.90
24384;DHT22;12504;52.870;8.798;2023-04-06T16:51:23;12.70;1.00
24384;DHT22;12504;52.870;8.798;2023-04-06T16:53:48;12.60;1.00
24384;DHT22;12504;52.870;8.798;2023-04-06T16:56:14;12.60;1.00
24384;DHT22;12504;52.870;8.798;2023-04-06T16:58:40;12.50;1.00
24384;DHT22;12504;52.870;8.798;2023-04-06T17:01:06;12.10;1.00
24384;DHT22;12504;52.870;8.798;2023-04-06T17:03:31;12.00;1.00
24384;DHT22;12504;52.870;8.798;2023-04-06T17:05:57;11.90;1.00
24384;DHT22;12504;52.870;8.798;2023-04-06T17:08:23;11.80;1.00
24384;DHT22;12504;52.870;8.798;2023-04-06T17:10:48;11.70;1.00
24384;DHT22;12504;52.870;8.798;2023-04-06T17:13:14;11.60;1.00
24384;DHT22;12504;52.870;8.798;2023-04-06T17:15:40;11.50;51.10
24384;DHT22;12504;52.870;8.798;2023-04-06T17:18:07;11.40;4.10
24384;DHT22;12504;52.870;8.798;2023-04-06T17:20:33;11.30;1.00
24384;DHT22;12504;52.870;8.798;2023-04-06T17:23:01;11.20;1.00
24384;DHT22;12504;52.870;8.798;2023-04-06T17:25:26;11.00;1.00
24384;DHT22;12504;52.870;8.798;2023-04-06T17:27:52;10.90;92.50
24384;DHT22;12504;52.870;8.798;2023-04-06T17:30:17;10.80;26.40
24384;DHT22;12504;52.870;8.798;2023-04-06T17:32:43;10.70;65.70
24384;DHT22;12504;52.870;8.798;2023-04-06T17:35:09;10.60;99.90
24384;DHT22;12504;52.870;8.798;2023-04-06T17:37:36;10.50;33.70
24384;DHT22;12504;52.870;8.798;2023-04-06T17:40:03;10.70;1.00
24384;DHT22;12504;52.870;8.798;2023-04-06T17:42:28;10.60;32.10
24384;DHT22;12504;52.870;8.798;2023-04-06T17:44:56;10.40;54.40
24384;DHT22;12504;52.870;8.798;2023-04-06T17:47:22;10.30;99.90
24384;DHT22;12504;52.870;8.798;2023-04-06T17:49:50;10.10;99.90
24384;DHT22;12504;52.870;8.798;2023-04-06T17:52:15;10.00;99.90
24384;DHT22;12504;52.870;8.798;2023-04-06T17:54:41;9.90;99.90
24384;DHT22;12504;52.870;8.798;2023-04-06T17:57:07;9.80;99.90
24384;DHT22;12504;52.870;8.798;2023-04-06T17:59:33;9.70;99.90
24384;DHT22;12504;52.870;8.798;2023-04-06T18:01:59;9.60;99.90
24384;DHT22;12504;52.870;8.798;2023-04-06T18:04:24;9.50;99.90
24384;DHT22;12504;52.870;8.798;2023-04-06T18:06:50;9.40;99.90
24384;DHT22;12504;52.870;8.798;2023-04-06T18:09:16;9.30;99.90
24384;DHT22;12504;52.870;8.798;2023-04-06T18:11:42;9.20;99.90
24384;DHT22;12504;52.870;8.798;2023-04-06T18:14:09;9.10;99.90
24384;DHT22;12504;52.870;8.798;2023-04-06T18:16:37;9.00;1.00
24384;DHT22;12504;52.870;8.798;2023-04-06T18:19:02;9.00;1.00
24384;DHT22;12504;52.870;8.798;2023-04-06T18:21:29;8.90;1.00
24384;DHT22;12504;52.870;8.798;2023-04-06T18:23:55;8.90;99.90
24384;DHT22;12504;52.870;8.798;2023-04-06T18:26:21;8.90;99.90
24384;DHT22;12504;52.870;8.798;2023-04-06T18:28:47;8.90;1.00
24384;DHT22;12504;52.870;8.798;2023-04-06T18:31:14;8.80;1.00
24384;DHT22;12504;52.870;8.798;2023-04-06T18:33:40;8.80;1.00
24384;DHT22;12504;52.870;8.798;2023-04-06T18:36:06;8.70;1.00
24384;DHT22;12504;52.870;8.798;2023-04-06T18:38:31;8.70;1.00
24384;DHT22;12504;52.870;8.798;2023-04-06T18:40:57;8.60;1.00
24384;DHT22;12504;52.870;8.798;2023-04-06T18:43:23;8.50;1.00
24384;DHT22;12504;52.870;8.798;2023-04-06T18:45:49;8.40;1.00
24384;DHT22;12504;52.870;8.798;2023-04-06T18:48:15;8.40;1.00
24384;DHT22;12504;52.870;8.798;2023-04-06T18:50:50;8.40;1.00
24384;DHT22;12504;52.870;8.798;2023-04-06T18:53:15;8.30;1.00
24384;DHT22;12504;52.870;8.798;2023-04-06T18:55:41;8.20;1.00
24384;DHT22;12504;52.870;8.798;2023-04-06T18:58:06;8.20;1.00
24384;DHT22;12504;52.870;8.798;2023-04-06T19:00:32;8.10;1.00
24384;DHT22;12504;52.870;8.798;2023-04-06T19:02:58;8.20;1.00
24384;DHT22;12504;52.870;8.798;2023-04-06T19:05:23;8.10;1.00
24384;DHT22;12504;52.870;8.798;2023-04-06T19:07:49;8.00;1.00
24384;DHT22;12504;52.870;8.798;2023-04-06T19:10:16;7.90;1.00
24384;DHT22;12504;52.870;8.798;2023-04-06T19:12:42;7.80;1.00
24384;DHT22;12504;52.870;8.798;2023-04-06T19:15:08;7.80;1.00
24384;DHT22;12504;52.870;8.798;2023-04-06T19:17:33;7.90;1.00
24384;DHT22;12504;52.870;8.798;2023-04-06T19:19:59;7.90;1.00
24384;DHT22;12504;52.870;8.798;2023-04-06T19:22:25;7.80;1.00
24384;DHT22;12504;52.870;8.798;2023-04-06T19:24:51;7.80;1.00
24384;DHT22;12504;52.870;8.798;2023-04-06T19:27:16;7.90;1.00
24384;DHT22;12504;52.870;8.798;2023-04-06T19:29:42;7.90;1.00
24384;DHT22;12504;52.870;8.798;2023-04-06T19:32:08;7.90;1.00
24384;DHT22;12504;52.870;8.798;2023-04-06T19:34:36;8.00;1.00
24384;DHT22;12504;52.870;8.798;2023-04-06T19:37:02;8.00;99.90
24384;DHT22;12504;52.870;8.798;2023-04-06T19:39:27;8.10;99.90
24384;DHT22;12504;52.870;8.798;2023-04-06T19:41:53;8.10;99.90
24384;DHT22;12504;52.870;8.798;2023-04-06T19:44:19;8.10;99.90
24384;DHT22;12504;52.870;8.798;2023-04-06T19:46:44;8.10;99.90
24384;DHT22;12504;52.870;8.798;2023-04-06T19:49:11;8.10;99.90
24384;DHT22;12504;52.870;8.798;2023-04-06T19:51:36;8.10;99.90
24384;DHT22;12504;52.870;8.798;2023-04-06T19:54:03;8.10;99.90
24384;DHT22;12504;52.870;8.798;2023-04-06T19:56:29;8.20;99.90
24384;DHT22;12504;52.870;8.798;2023-04-06T19:58:56;8.10;99.90
24384;DHT22;12504;52.870;8.798;2023-04-06T20:01:22;8.20;99.90
24384;DHT22;12504;52.870;8.798;2023-04-06T20:03:47;8.20;99.90
24384;DHT22;12504;52.870;8.798;2023-04-06T20:06:13;8.20;99.90
24384;DHT22;12504;52.870;8.798;2023-04-06T20:08:39;8.20;99.90
24384;DHT22;12504;52.870;8.798;2023-04-06T20:11:05;8.20;99.90
24384;DHT22;12504;52.870;8.798;2023-04-06T20:13:34;8.10;99.90
24384;DHT22;12504;52.870;8.798;2023-04-06T20:15:59;8.00;99.90
24384;DHT22;12504;52.870;8.798;2023-04-06T20:18:25;8.00;99.90
24384;DHT22;12504;52.870;8.798;2023-04-06T20:20:51;8.00;1.00
24384;DHT22;12504;52.870;8.798;2023-04-06T20:23:16;8.00;99.90
24384;DHT22;12504;52.870;8.798;2023-04-06T20:25:42;8.00;99.90
24384;DHT22;12504;52.870;8.798;2023-04-06T20:28:08;7.90;99.90
24384;DHT22;12504;52.870;8.798;2023-04-06T20:30:34;7.90;1.00
24384;DHT22;12504;52.870;8.798;2023-04-06T20:32:59;7.90;1.00
24384;DHT22;12504;52.870;8.798;2023-04-06T20:35:25;8.00;99.90
24384;DHT22;12504;52.870;8.798;2023-04-06T20:37:51;8.20;99.90
24384;DHT22;12504;52.870;8.798;2023-04-06T20:40:16;8.20;99.90
24384;DHT22;12504;52.870;8.798;2023-04-06T20:42:42;8.10;99.90
24384;DHT22;12504;52.870;8.798;2023-04-06T20:45:08;8.10;99.90
24384;DHT22;12504;52.870;8.798;2023-04-06T20:47:33;8.00;99.90
24384;DHT22;12504;52.870;8.798;2023-04-06T20:49:59;8.00;99.90
24384;DHT22;12504;52.870;8.798;2023-04-06T20:52:24;7.90;99.90
24384;DHT22;12504;52.870;8.798;2023-04-06T20:54:51;7.90;99.90
24384;DHT22;12504;52.870;8.798;2023-04-06T20:57:16;7.90;99.90
24384;DHT22;12504;52.870;8.798;2023-04-06T20:59:42;7.80;99.90
24384;DHT22;12504;52.870;8.798;2023-04-06T21:02:09;7.70;99.90
24384;DHT22;12504;52.870;8.798;2023-04-06T21:04:35;7.60;99.90
24384;DHT22;12504;52.870;8.798;2023-04-06T21:07:05;7.50;1.00
24384;DHT22;12504;52.870;8.798;2023-04-06T21:09:32;7.40;1.00
24384;DHT22;12504;52.870;8.798;2023-04-06T21:11:58;7.40;1.00
24384;DHT22;12504;52.870;8.798;2023-04-06T21:14:24;7.40;1.00
24384;DHT22;12504;52.870;8.798;2023-04-06T21:16:50;7.30;1.00
24384;DHT22;12504;52.870;8.798;2023-04-06T21:19:16;7.30;1.00
24384;DHT22;12504;52.870;8.798;2023-04-06T21:21:42;7.20;1.00
24384;DHT22;12504;52.870;8.798;2023-04-06T21:24:08;7.10;1.00
24384;DHT22;12504;52.870;8.798;2023-04-06T21:26:33;7.00;1.00
24384;DHT22;12504;52.870;8.798;2023-04-06T21:28:59;7.00;1.00
24384;DHT22;12504;52.870;8.798;2023-04-06T21:31:25;6.90;1.00
24384;DHT22;12504;52.870;8.798;2023-04-06T21:33:50;6.80;1.00
24384;DHT22;12504;52.870;8.798;2023-04-06T21:36:16;6.70;1.00
24384;DHT22;12504;52.870;8.798;2023-04-06T21:38:41;6.80;1.00
24384;DHT22;12504;52.870;8.798;2023-04-06T21:41:07;6.70;1.00
24384;DHT22;12504;52.870;8.798;2023-04-06T21:43:33;6.70;1.00
24384;DHT22;12504;52.870;8.798;2023-04-06T21:45:58;6.60;1.00
24384;DHT22;12504;52.870;8.798;2023-04-06T21:48:24;6.60;1.00
24384;DHT22;12504;52.870;8.798;2023-04-06T21:50:50;6.50;1.00
24384;DHT22;12504;52.870;8.798;2023-04-06T21:53:15;6.50;1.00
24384;DHT22;12504;52.870;8.798;2023-04-06T21:55:44;6.40;1.00
24384;DHT22;12504;52.870;8.798;2023-04-06T21:58:11;6.30;1.00
24384;DHT22;12504;52.870;8.798;2023-04-06T22:00:37;6.30;1.00
24384;DHT22;12504;52.870;8.798;2023-04-06T22:03:02;6.30;1.00
24384;DHT22;12504;52.870;8.798;2023-04-06T22:05:28;6.30;1.00
24384;DHT22;12504;52.870;8.798;2023-04-06T22:07:53;6.20;1.00
24384;DHT22;12504;52.870;8.798;2023-04-06T22:10:21;6.20;1.00
24384;DHT22;12504;52.870;8.798;2023-04-06T22:12:50;6.20;1.00
24384;DHT22;12504;52.870;8.798;2023-04-06T22:15:15;6.20;1.00
24384;DHT22;12504;52.870;8.798;2023-04-06T22:17:41;6.10;1.00
24384;DHT22;12504;52.870;8.798;2023-04-06T22:20:07;6.10;1.00
24384;DHT22;12504;52.870;8.798;2023-04-06T22:22:32;6.10;6.20
24384;DHT22;12504;52.870;8.798;2023-04-06T22:24:58;6.00;27.50
24384;DHT22;12504;52.870;8.798;2023-04-06T22:27:26;6.00;8.50
24384;DHT22;12504;52.870;8.798;2023-04-06T22:29:51;5.90;23.10
24384;DHT22;12504;52.870;8.798;2023-04-06T22:32:17;6.00;17.00
24384;DHT22;12504;52.870;8.798;2023-04-06T22:34:42;6.00;1.00
24384;DHT22;12504;52.870;8.798;2023-04-06T22:37:08;6.00;1.00
24384;DHT22;12504;52.870;8.798;2023-04-06T22:39:34;6.00;4.00
24384;DHT22;12504;52.870;8.798;2023-04-06T22:42:00;6.00;1.00
24384;DHT22;12504;52.870;8.798;2023-04-06T22:51:23;6.00;1.00
24384;DHT22;12504;52.870;8.798;2023-04-06T22:53:49;5.90;1.00
24384;DHT22;12504;52.870;8.798;2023-04-06T22:56:14;5.80;4.60
24384;DHT22;12504;52.870;8.798;2023-04-06T22:58:40;5.80;21.90
24384;DHT22;12504;52.870;8.798;2023-04-06T23:01:05;5.70;17.90
24384;DHT22;12504;52.870;8.798;2023-04-06T23:03:32;5.70;10.00
24384;DHT22;12504;52.870;8.798;2023-04-06T23:05:57;5.70;11.00
24384;DHT22;12504;52.870;8.798;2023-04-06T23:08:23;5.60;8.70
24384;DHT22;12504;52.870;8.798;2023-04-06T23:10:49;5.70;2.00
24384;DHT22;12504;52.870;8.798;2023-04-06T23:13:14;5.60;5.00
24384;DHT22;12504;52.870;8.798;2023-04-06T23:15:40;5.60;5.30
24384;DHT22;12504;52.870;8.798;2023-04-06T23:18:06;5.50;18.60
24384;DHT22;12504;52.870;8.798;2023-04-06T23:20:32;5.50;62.80
24384;DHT22;12504;52.870;8.798;2023-04-06T23:22:57;5.50;48.00
24384;DHT22;12504;52.870;8.798;2023-04-06T23:25:23;5.40;50.80
24384;DHT22;12504;52.870;8.798;2023-04-06T23:27:48;5.40;39.30
24384;DHT22;12504;52.870;8.798;2023-04-06T23:30:14;5.50;27.50
24384;DHT22;12504;52.870;8.798;2023-04-06T23:32:40;5.50;29.00
24384;DHT22;12504;52.870;8.798;2023-04-06T23:35:07;5.50;28.00
24384;DHT22;12504;52.870;8.798;2023-04-06T23:37:32;5.50;34.00
24384;DHT22;12504;52.870;8.798;2023-04-06T23:39:58;5.40;33.90
24384;DHT22;12504;52.870;8.798;2023-04-06T23:42:26;5.40;38.30
24384;DHT22;12504;52.870;8.798;2023-04-06T23:44:52;5.40;36.30
24384;DHT22;12504;52.870;8.798;2023-04-06T23:47:17;5.30;36.90
24384;DHT22;12504;52.870;8.798;2023-04-06T23:49:43;5.30;38.90
24384;DHT22;12504;52.870;8.798;2023-04-06T23:52:08;5.30;41.20
24384;DHT22;12504;52.870;8.798;2023-04-06T23:54:34;5.20;43.40
24384;DHT22;12504;52.870;8.798;2023-04-06T23:57:00;5.20;45.00
24384;DHT22;12504;52.870;8.798;2023-04-06T23:59:25;5.10;57.30
